Time;durP1;ratioP1;P1;durP2;ratioP2;P2;SDS_P1;SDS_P2;PMS_P1;PMS_P2;Temp;Humidity;BMP_temperature;BMP_pressure;BME280_temperature;BME280_humidity;BME280_pressure;Samples;Min_cycle;Max_cycle;Signal;HPM_P1;HPM_P2
2024/02/28 00:00:16;;;;;;;12.07;5.57;;;;;;;10.59;85.54;100073.34;6272948;28;20057;-71
2024/02/28 00:03:19;;;;;;;12.10;5.40;;;;;;;10.55;86.08;100074.47;6271400;28;20057;-70
2024/02/28 00:06:20;;;;;;;9.32;5.32;;;;;;;10.48;86.40;100069.63;6272926;28;20053;-70
2024/02/28 00:09:21;;;;;;;12.80;5.68;;;;;;;10.37;86.40;100085.06;6267705;28;20052;-70
2024/02/28 00:12:22;;;;;;;10.38;5.47;;;;;;;10.30;87.43;100075.09;6252807;28;20135;-69
2024/02/28 00:15:23;;;;;;;12.75;5.88;;;;;;;10.24;87.33;100077.09;6271495;28;20084;-70
2024/02/28 00:18:23;;;;;;;10.90;5.75;;;;;;;10.19;87.51;100081.75;6272511;28;20041;-70
2024/02/28 00:21:24;;;;;;;8.40;5.18;;;;;;;10.17;87.53;100083.63;6272460;28;20053;-70
2024/02/28 00:24:25;;;;;;;13.15;5.80;;;;;;;10.13;88.04;100092.53;6272320;28;20049;-69
2024/02/28 00:27:26;;;;;;;10.52;5.55;;;;;;;10.03;88.53;100087.03;6271146;28;20064;-69
2024/02/28 00:30:28;;;;;;;11.48;6.00;;;;;;;9.97;88.84;100081.34;6271773;28;20465;-69
2024/02/28 00:33:29;;;;;;;15.10;5.47;;;;;;;9.95;88.90;100077.97;6272424;28;20105;-69
2024/02/28 00:36:32;;;;;;;10.13;5.45;;;;;;;9.92;88.89;100078.13;6262292;28;20061;-70
2024/02/28 00:39:32;;;;;;;10.88;5.53;;;;;;;9.90;88.15;100083.44;6247783;28;20052;-69
2024/02/28 00:42:33;;;;;;;11.70;5.32;;;;;;;9.87;88.17;100081.84;6259779;28;20053;-69
2024/02/28 00:45:34;;;;;;;10.73;6.22;;;;;;;9.85;88.13;100086.31;6271026;28;20102;-70
2024/02/28 00:48:35;;;;;;;12.32;6.70;;;;;;;9.72;90.07;100079.28;6271027;28;20098;-70
2024/02/28 00:51:37;;;;;;;11.50;6.55;;;;;;;9.77;90.27;100087.69;6260197;28;20127;-70
2024/02/28 00:54:37;;;;;;;15.82;7.57;;;;;;;9.76;89.88;100088.59;6247264;28;20075;-69
2024/02/28 00:57:40;;;;;;;12.18;6.90;;;;;;;9.71;90.27;100094.06;6247131;28;20509;-69
2024/02/28 01:00:44;;;;;;;13.45;7.20;;;;;;;9.67;90.30;100092.56;6247170;28;20049;-69
2024/02/28 01:03:44;;;;;;;17.52;6.97;;;;;;;9.67;89.79;100084.75;6249893;28;20045;-69
2024/02/28 01:06:46;;;;;;;12.25;6.97;;;;;;;9.69;90.36;100091.53;6271966;28;20484;-69
2024/02/28 01:09:46;;;;;;;18.83;6.57;;;;;;;9.71;90.33;100088.03;6270745;28;20072;-70
2024/02/28 01:12:47;;;;;;;9.77;6.40;;;;;;;9.72;89.45;100087.09;6271759;28;20087;-75
2024/02/28 01:15:48;;;;;;;13.48;6.93;;;;;;;9.64;90.68;100090.97;6270704;28;20049;-75
2024/02/28 01:18:49;;;;;;;17.88;6.50;;;;;;;9.66;90.90;100088.28;6271559;28;20121;-75
2024/02/28 01:21:50;;;;;;;13.57;6.20;;;;;;;9.58;91.35;100085.28;6271141;28;20136;-75
2024/02/28 01:24:50;;;;;;;10.13;6.03;;;;;;;9.51;91.57;100078.72;6270440;28;20059;-75
2024/02/28 01:27:55;;;;;;;12.15;6.85;;;;;;;9.46;92.14;100087.63;6270522;28;20080;-69
2024/02/28 01:31:00;;;;;;;10.13;6.03;;;;;;;9.46;92.12;100087.63;6270362;28;20060;-75
2024/02/28 01:34:00;;;;;;;20.33;6.53;;;;;;;9.44;92.86;100089.50;6271441;28;20076;-69
2024/02/28 01:37:01;;;;;;;10.85;6.65;;;;;;;9.37;93.27;100087.28;6270015;28;20457;-75
2024/02/28 01:40:04;;;;;;;10.02;5.82;;;;;;;9.28;93.39;100089.50;6270154;28;20053;-74
2024/02/28 01:43:08;;;;;;;11.07;5.90;;;;;;;9.25;94.08;100083.63;6250797;28;20085;-75
2024/02/28 01:46:37;;;;;;;13.52;6.30;;;;;;;9.28;94.72;100089.50;6250306;28;20049;-75
2024/02/28 01:49:41;;;;;;;10.15;5.47;;;;;;;9.27;95.03;100085.22;6250802;28;20497;-69
2024/02/28 01:52:44;;;;;;;9.70;5.75;;;;;;;9.28;94.84;100089.50;6266472;28;20056;-75
2024/02/28 01:55:44;;;;;;;12.68;6.38;;;;;;;9.32;94.74;100087.56;6251122;28;20164;-70
2024/02/28 01:58:47;;;;;;;13.35;5.63;;;;;;;9.37;95.13;100093.38;6260847;28;20473;-75
2024/02/28 02:01:48;;;;;;;10.50;5.93;;;;;;;9.37;95.92;100093.38;6267372;28;20053;-75
2024/02/28 02:04:52;;;;;;;17.88;5.88;;;;;;;9.41;95.91;100094.00;6267633;28;20401;-70
2024/02/28 02:07:55;;;;;;;12.93;6.13;;;;;;;9.49;96.14;100099.63;6265434;28;20050;-71
2024/02/28 02:10:56;;;;;;;;;;;;;;;9.54;96.62;100102.00;6266757;28;20140;-70
2024/02/28 02:13:57;;;;;;;13.80;5.28;;;;;;;9.52;96.22;100107.31;6264507;28;19921;-75
2024/02/28 02:16:57;;;;;;;13.70;6.32;;;;;;;9.52;98.36;100112.50;6273873;28;20391;-71
2024/02/28 02:19:58;;;;;;;12.77;6.38;;;;;;;9.55;97.04;100114.09;6255620;28;20098;-70
2024/02/28 02:23:00;;;;;;;13.85;6.22;;;;;;;9.59;96.99;100113.84;6260954;28;20057;-71
2024/02/28 02:26:00;;;;;;;10.93;6.28;;;;;;;9.66;99.05;100122.16;6274362;28;20052;-71
2024/02/28 02:29:01;;;;;;;12.13;6.32;;;;;;;9.71;98.98;100114.91;6275070;28;20045;-71
2024/02/28 02:32:02;;;;;;;10.93;5.45;;;;;;;9.72;97.08;100113.13;6257809;28;20056;-70
2024/02/28 02:35:03;;;;;;;11.85;6.00;;;;;;;9.75;95.91;100115.59;6255784;28;20052;-69
2024/02/28 02:38:04;;;;;;;11.98;5.57;;;;;;;9.77;95.98;100121.56;6255938;28;20051;-70
2024/02/28 02:41:04;;;;;;;16.65;5.88;;;;;;;9.78;96.04;100128.44;6252368;28;20048;-70
2024/02/28 02:44:07;;;;;;;9.40;5.80;;;;;;;9.71;94.89;100119.28;6261586;28;20069;-69
2024/02/28 02:47:09;;;;;;;10.93;5.75;;;;;;;9.72;93.87;100120.97;6250067;28;20112;-69
2024/02/28 02:50:10;;;;;;;14.77;5.72;;;;;;;9.79;94.18;100124.91;6248616;28;20623;-69
2024/02/28 02:53:11;;;;;;;9.13;5.05;;;;;;;9.88;96.01;100134.81;6262653;28;20465;-70
2024/02/28 02:56:12;;;;;;;9.52;5.88;;;;;;;9.92;96.09;100133.69;6274491;28;20056;-70
2024/02/28 02:59:12;;;;;;;9.63;5.85;;;;;;;9.93;95.86;100127.56;6257581;28;20057;-69
2024/02/28 03:02:13;;;;;;;12.70;5.90;;;;;;;9.97;97.29;100136.06;6259230;28;20451;-69
2024/02/28 03:05:14;;;;;;;12.68;5.15;;;;;;;9.91;95.91;100131.22;6258551;28;20049;-69
2024/02/28 03:08:15;;;;;;;9.43;5.72;;;;;;;9.86;93.52;100129.69;6259410;28;20075;-69
2024/02/28 03:11:16;;;;;;;8.75;5.25;;;;;;;9.95;93.52;100137.91;6260573;28;20091;-70
2024/02/28 03:14:16;;;;;;;9.95;5.43;;;;;;;9.99;92.81;100142.88;6255511;28;20061;-70
2024/02/28 03:17:17;;;;;;;11.70;6.28;;;;;;;10.05;94.69;100147.72;6263164;28;20076;-69
2024/02/28 03:20:21;;;;;;;10.00;5.85;;;;;;;10.01;94.35;100150.59;6260704;28;20047;-69
2024/02/28 03:23:21;;;;;;;14.75;6.40;;;;;;;10.02;94.63;100144.44;6260812;28;20059;-70
2024/02/28 03:26:23;;;;;;;11.32;6.00;;;;;;;10.04;94.60;100142.59;6262371;28;20048;-70
2024/02/28 03:29:23;;;;;;;14.60;5.93;;;;;;;10.11;93.96;100149.16;6250652;28;20188;-69
2024/02/28 03:32:24;;;;;;;12.40;5.50;;;;;;;10.13;93.81;100147.28;6255329;28;20796;-69
2024/02/28 03:35:25;;;;;;;11.15;5.93;;;;;;;10.16;94.18;100154.94;6268416;28;20053;-70
2024/02/28 03:38:25;;;;;;;11.18;5.85;;;;;;;10.21;94.81;100157.25;6262980;28;20099;-70
2024/02/28 03:41:26;;;;;;;14.70;6.35;;;;;;;10.19;94.75;100154.75;6260336;28;20433;-70
2024/02/28 03:44:27;;;;;;;11.07;6.22;;;;;;;10.19;95.41;100153.91;6250393;28;20057;-75
2024/02/28 03:47:28;;;;;;;14.20;6.60;;;;;;;10.20;95.00;100155.59;6257589;28;20053;-75
2024/02/28 03:50:28;;;;;;;16.98;7.10;;;;;;;10.20;94.53;100153.00;6247345;28;20059;-75
2024/02/28 03:53:29;;;;;;;14.23;6.88;;;;;;;10.18;95.89;100160.06;6256768;28;20453;-75
2024/02/28 03:56:32;;;;;;;10.85;6.45;;;;;;;10.17;96.33;100153.16;6291915;28;20060;-75
2024/02/28 03:59:33;;;;;;;13.75;7.38;;;;;;;10.15;96.52;100160.22;6265234;28;20127;-75
2024/02/28 04:02:34;;;;;;;22.42;8.00;;;;;;;10.07;96.28;100158.06;6257999;28;20053;-75
2024/02/28 04:05:35;;;;;;;29.48;10.23;;;;;;;10.03;95.55;100165.22;6252011;28;21750;-70
2024/02/28 04:08:36;;;;;;;30.40;10.77;;;;;;;9.96;94.20;100158.66;6263533;28;20107;-70
2024/02/28 04:11:37;;;;;;;34.08;12.15;;;;;;;9.93;94.79;100165.84;6269900;28;20137;-69
2024/02/28 04:14:42;;;;;;;39.88;12.18;;;;;;;9.87;93.27;100164.41;6262708;28;20053;-75
2024/02/28 04:17:42;;;;;;;27.88;11.80;;;;;;;9.80;93.27;100163.06;6266902;28;20140;-75
2024/02/28 04:20:43;;;;;;;24.25;11.27;;;;;;;9.77;93.24;100166.69;6255852;28;20068;-75
2024/02/28 04:23:44;;;;;;;26.75;9.50;;;;;;;9.70;93.58;100167.97;6250037;28;20053;-75
2024/02/28 04:26:45;;;;;;;25.08;10.23;;;;;;;9.67;94.48;100176.78;6251182;28;20421;-69
2024/02/28 04:29:48;;;;;;;26.15;10.40;;;;;;;9.65;94.40;100176.00;6245573;28;20063;-75
2024/02/28 04:32:51;;;;;;;21.50;10.65;;;;;;;9.61;93.91;100184.91;6245756;28;20080;-75
2024/02/28 04:35:52;;;;;;;18.70;8.80;;;;;;;9.59;93.99;100178.13;6243405;28;20046;-75
2024/02/28 04:38:52;;;;;;;20.58;8.70;;;;;;;9.58;93.14;100179.06;6257878;28;20053;-75
2024/02/28 04:41:53;;;;;;;18.73;7.68;;;;;;;9.54;93.67;100178.38;6247313;28;20049;-75
2024/02/28 04:44:54;;;;;;;14.38;7.32;;;;;;;9.50;93.14;100182.09;6253505;28;20045;-75
2024/02/28 04:47:56;;;;;;;12.55;5.97;;;;;;;9.52;93.22;100182.00;6245857;28;20080;-75
2024/02/28 04:50:57;;;;;;;15.18;6.63;;;;;;;9.50;91.79;100187.28;6244987;28;20054;-69
2024/02/28 04:54:00;;;;;;;13.10;6.70;;;;;;;9.48;91.79;100189.13;6247351;28;20051;-69
2024/02/28 04:57:01;;;;;;;24.45;6.93;;;;;;;9.48;91.25;100192.56;6245620;28;20053;-70
2024/02/28 05:00:03;;;;;;;12.00;6.00;;;;;;;9.39;92.48;100185.28;6250354;28;20144;-75
2024/02/28 05:03:04;;;;;;;;;;;;;;;9.37;92.51;100196.66;6248251;28;20176;-75
2024/02/28 05:06:05;;;;;;;13.85;6.93;;;;;;;9.33;92.85;100197.75;6254037;28;20409;-75
2024/02/28 05:09:05;;;;;;;16.35;6.78;;;;;;;9.30;92.50;100196.16;6242472;28;20135;-75
2024/02/28 05:12:06;;;;;;;13.77;7.07;;;;;;;9.25;92.02;100195.59;6243662;28;20072;-75
2024/02/28 05:15:08;;;;;;;16.52;8.63;;;;;;;9.19;92.49;100186.34;6247210;28;20053;-75
2024/02/28 05:18:08;;;;;;;20.08;10.10;;;;;;;9.12;92.42;100195.41;6249788;28;20409;-69
2024/02/28 05:21:09;;;;;;;18.27;9.05;;;;;;;9.10;93.09;100205.06;6253553;28;20057;-70
2024/02/28 05:24:10;;;;;;;21.30;9.57;;;;;;;9.05;92.72;100204.44;6254474;28;20523;-75
2024/02/28 05:27:13;;;;;;;20.30;8.48;;;;;;;9.01;92.74;100203.75;6256535;28;20060;-70
2024/02/28 05:30:14;;;;;;;15.55;8.32;;;;;;;9.06;92.38;100213.94;6251990;28;20507;-69
2024/02/28 05:33:17;;;;;;;18.45;7.53;;;;;;;9.07;93.18;100219.03;6258426;28;20052;-70
2024/02/28 05:36:21;;;;;;;;;;;;;;;9.12;93.85;100221.44;6277029;28;20072;-70
2024/02/28 05:39:22;;;;;;;19.63;8.60;;;;;;;9.19;95.08;100228.00;6276596;28;19921;-75
2024/02/28 05:42:23;;;;;;;15.07;7.75;;;;;;;9.18;94.40;100226.31;6273290;28;20103;-69
2024/02/28 05:45:25;;;;;;;20.70;9.90;;;;;;;9.20;94.83;100234.03;6276337;28;20064;-75
2024/02/28 05:48:25;;;;;;;19.70;9.50;;;;;;;9.32;96.01;100237.75;6275654;28;20077;-75
2024/02/28 05:51:28;;;;;;;21.30;8.90;;;;;;;9.42;95.26;100239.78;6254324;28;20053;-75
2024/02/28 05:54:29;;;;;;;17.60;8.93;;;;;;;9.54;96.60;100238.28;6266512;28;20053;-75
2024/02/28 05:57:32;;;;;;;18.70;8.15;;;;;;;9.64;97.41;100241.25;6264852;28;20112;-75
2024/02/28 06:00:34;;;;;;;23.77;9.45;;;;;;;9.71;97.90;100239.16;6252200;28;20049;-69
2024/02/28 06:03:36;;;;;;;;;;;;;;;9.77;97.22;100244.03;6252207;28;20055;-75
2024/02/28 06:06:37;;;;;;;17.27;8.32;;;;;;;9.82;98.65;100248.06;6251772;28;19932;-75
2024/02/28 06:09:38;;;;;;;20.67;10.00;;;;;;;9.87;98.13;100242.59;6273572;28;20045;-75
2024/02/28 06:12:38;;;;;;;22.35;10.23;;;;;;;9.95;95.44;100252.63;6268876;28;20140;-75
2024/02/28 06:15:39;;;;;;;23.92;10.05;;;;;;;10.07;94.77;100255.38;6270647;28;20045;-75
2024/02/28 06:18:40;;;;;;;25.38;11.00;;;;;;;10.16;96.62;100255.78;6271122;28;20106;-75
2024/02/28 06:21:41;;;;;;;26.90;12.23;;;;;;;10.24;95.45;100256.19;6273944;28;20573;-76
2024/02/28 06:24:42;;;;;;;20.20;9.98;;;;;;;10.33;93.83;100255.69;6257134;28;20516;-75
2024/02/28 06:27:43;;;;;;;19.00;10.77;;;;;;;10.48;93.46;100259.22;6268534;28;20170;-75
2024/02/28 06:30:47;;;;;;;23.38;10.40;;;;;;;10.65;94.61;100263.47;6259078;28;20056;-75
2024/02/28 06:33:48;;;;;;;21.25;10.52;;;;;;;10.74;92.51;100259.47;6251609;28;20053;-75
2024/02/28 06:36:49;;;;;;;23.20;10.15;;;;;;;10.88;93.39;100265.56;6252616;28;20561;-75
2024/02/28 06:39:49;;;;;;;24.13;10.35;;;;;;;10.97;92.02;100268.56;6246962;28;20045;-75
2024/02/28 06:42:50;;;;;;;26.08;10.50;;;;;;;11.13;91.44;100265.88;6248730;28;20076;-75
2024/02/28 06:45:51;;;;;;;17.00;9.13;;;;;;;11.24;89.78;100259.09;6249092;28;20049;-75
2024/02/28 06:48:51;;;;;;;17.38;9.77;;;;;;;11.39;87.92;100264.31;6249192;28;20080;-75
2024/02/28 06:51:53;;;;;;;15.73;9.05;;;;;;;11.51;86.20;100258.34;6248825;28;20135;-75
2024/02/28 06:54:53;;;;;;;20.48;9.70;;;;;;;11.63;86.33;100254.97;6248837;28;20516;-75
2024/02/28 06:57:54;;;;;;;26.33;9.95;;;;;;;11.78;87.98;100258.38;6249260;28;20041;-75
2024/02/28 07:00:55;;;;;;;21.75;9.60;;;;;;;11.89;86.36;100255.13;6247682;28;20140;-75
2024/02/28 07:03:56;;;;;;;18.92;8.70;;;;;;;12.01;85.61;100266.59;6248773;28;20088;-75
2024/02/28 07:06:57;;;;;;;15.25;8.75;;;;;;;12.15;84.09;100268.31;6247594;28;20139;-75
2024/02/28 07:09:57;;;;;;;17.00;8.68;;;;;;;12.26;83.87;100260.63;6248505;28;20049;-75
2024/02/28 07:12:58;;;;;;;21.50;8.85;;;;;;;12.41;83.52;100270.06;6247239;28;20061;-75
2024/02/28 07:15:59;;;;;;;26.40;10.68;;;;;;;12.56;82.72;100272.63;6248607;28;20057;-76
2024/02/28 07:19:03;;;;;;;27.40;10.98;;;;;;;12.73;80.38;100263.69;6248229;28;20111;-75
2024/02/28 07:22:05;;;;;;;37.20;10.13;;;;;;;12.82;79.68;100270.91;6248531;28;20053;-75
2024/02/28 07:25:07;;;;;;;23.13;10.25;;;;;;;12.95;77.88;100269.16;6248115;28;20131;-75
2024/02/28 07:28:08;;;;;;;;;;;;;;;13.12;76.79;100264.56;6248783;28;20270;-75
2024/02/28 07:31:16;;;;;;;26.08;9.50;;;;;;;13.28;75.70;100257.28;6246963;28;19927;-75
2024/02/28 07:34:17;;;;;;;20.65;9.45;;;;;;;13.37;76.21;100267.19;6246747;28;20053;-76
2024/02/28 07:37:17;;;;;;;18.25;8.80;;;;;;;13.49;76.67;100270.75;6247710;28;20505;-75
2024/02/28 07:40:18;;;;;;;17.00;8.45;;;;;;;13.63;75.41;100273.25;6247977;28;20045;-75
2024/02/28 07:43:19;;;;;;;17.05;7.97;;;;;;;13.74;74.17;100272.47;6247177;28;20080;-75
2024/02/28 07:46:20;;;;;;;24.65;7.72;;;;;;;13.81;73.22;100270.25;6271754;28;20485;-76
2024/02/28 07:49:20;;;;;;;17.15;8.82;;;;;;;13.95;74.18;100271.91;6271291;28;20473;-75
2024/02/28 07:52:21;;;;;;;18.98;8.88;;;;;;;14.09;74.12;100272.56;6272068;28;20075;-75
2024/02/28 07:55:22;;;;;;;22.27;13.93;;;;;;;14.17;72.88;100272.03;6270941;28;20059;-75
2024/02/28 07:58:23;;;;;;;25.27;9.63;;;;;;;14.24;71.08;100273.25;6270763;28;20456;-74
2024/02/28 08:01:23;;;;;;;17.08;8.90;;;;;;;14.40;72.05;100265.09;6270855;28;20136;-76
2024/02/28 08:04:24;;;;;;;23.90;8.10;;;;;;;14.49;72.31;100266.19;6270811;28;20413;-75
2024/02/28 08:07:25;;;;;;;33.35;15.32;;;;;;;14.54;70.88;100273.72;6270993;28;20048;-76
2024/02/28 08:10:26;;;;;;;23.70;11.60;;;;;;;14.71;68.83;100273.34;6270708;28;20086;-76
2024/02/28 08:13:28;;;;;;;24.63;11.85;;;;;;;14.80;69.11;100272.63;6271823;28;20049;-76
2024/02/28 08:16:29;;;;;;;44.10;17.65;;;;;;;14.78;67.78;100271.91;6270520;28;20501;-75
2024/02/28 08:19:29;;;;;;;25.77;14.30;;;;;;;14.91;67.49;100269.22;6271533;28;20041;-76
2024/02/28 08:22:34;;;;;;;26.75;13.38;;;;;;;15.02;66.37;100273.66;6271788;28;20055;-75
2024/02/28 08:25:34;;;;;;;22.52;10.57;;;;;;;15.11;66.30;100286.09;6271957;28;20444;-76
2024/02/28 08:28:35;;;;;;;23.15;9.88;;;;;;;15.19;66.89;100277.63;6271638;28;20049;-75
2024/02/28 08:31:43;;;;;;;17.73;9.73;;;;;;;15.35;66.67;100277.28;6270132;28;20173;-75
2024/02/28 08:34:46;;;;;;;20.60;9.88;;;;;;;15.49;64.81;100282.31;6271447;28;20508;-75
2024/02/28 08:37:46;;;;;;;;;;;;;;;15.63;63.26;100289.97;6270391;28;20041;-76
2024/02/28 08:40:47;;;;;;;17.33;7.50;;;;;;;15.75;63.58;100282.06;6271403;28;19931;-75
2024/02/28 08:43:48;;;;;;;16.58;8.57;;;;;;;15.81;60.12;100284.22;6271462;28;20061;-75
2024/02/28 08:46:49;;;;;;;13.25;9.00;;;;;;;15.83;59.97;100280.50;6271111;28;20049;-76
2024/02/28 08:49:51;;;;;;;18.73;10.23;;;;;;;15.97;59.46;100281.22;6269460;28;20095;-76
2024/02/28 08:52:51;;;;;;;11.73;7.18;;;;;;;16.13;58.78;100289.56;6270939;28;20045;-76
2024/02/28 08:55:54;;;;;;;17.08;7.25;;;;;;;16.18;57.04;100283.91;6270894;28;20486;-75
2024/02/28 08:58:55;;;;;;;11.85;6.05;;;;;;;16.32;56.88;100289.72;6270738;28;20067;-76
2024/02/28 09:01:55;;;;;;;15.57;5.80;;;;;;;16.38;54.61;100293.66;6269702;28;20502;-76
2024/02/28 09:04:56;;;;;;;18.13;7.60;;;;;;;16.46;56.57;100293.88;6270882;28;20057;-76
2024/02/28 09:07:57;;;;;;;16.70;8.10;;;;;;;16.54;55.61;100292.41;6269855;28;20045;-75
2024/02/28 09:10:58;;;;;;;15.32;6.10;;;;;;;16.58;55.46;100292.03;6270998;28;20052;-76
2024/02/28 09:13:59;;;;;;;29.08;17.25;;;;;;;16.70;55.60;100303.38;6270710;28;20139;-75
2024/02/28 09:17:03;;;;;;;14.07;8.30;;;;;;;16.78;52.62;100305.34;6270769;28;20452;-76
2024/02/28 09:20:06;;;;;;;13.25;5.95;;;;;;;16.86;54.41;100309.06;6269381;28;20078;-76
2024/02/28 09:23:07;;;;;;;10.07;5.50;;;;;;;16.90;53.34;100301.72;6270931;28;20049;-76
2024/02/28 09:26:07;;;;;;;12.18;6.28;;;;;;;16.94;52.63;100305.78;6270389;28;20052;-76
2024/02/28 09:29:08;;;;;;;24.63;12.52;;;;;;;17.00;51.94;100302.63;6269663;28;20481;-76
2024/02/28 09:32:09;;;;;;;19.58;9.13;;;;;;;17.09;52.89;100309.78;6269309;28;20144;-75
2024/02/28 09:35:10;;;;;;;10.13;6.22;;;;;;;17.22;53.70;100303.47;6270623;28;20421;-75
2024/02/28 09:38:11;;;;;;;22.98;12.50;;;;;;;17.23;52.12;100315.66;6270278;28;20049;-75
2024/02/28 09:41:16;;;;;;;11.32;7.10;;;;;;;17.27;51.60;100309.16;6269609;28;20107;-75
2024/02/28 09:44:17;;;;;;;13.45;5.63;;;;;;;17.35;51.62;100314.63;6269297;28;20059;-76
2024/02/28 09:47:18;;;;;;;13.32;5.60;;;;;;;17.14;50.30;100314.66;6269100;28;20053;-75
2024/02/28 09:50:20;;;;;;;9.30;5.57;;;;;;;17.32;51.34;100320.16;6269465;28;20103;-76
2024/02/28 09:53:20;;;;;;;12.77;4.87;;;;;;;17.47;51.18;100320.66;6269143;28;20485;-75
2024/02/28 09:56:27;;;;;;;11.43;4.88;;;;;;;17.53;50.29;100314.84;6270663;28;20285;-76
2024/02/28 09:59:31;;;;;;;17.45;4.82;;;;;;;17.50;49.58;100328.28;6270154;28;20391;-76
2024/02/28 10:02:33;;;;;;;7.95;4.60;;;;;;;17.50;49.90;100318.59;6270008;28;20057;-75
2024/02/28 10:05:35;;;;;;;13.13;4.68;;;;;;;17.53;49.57;100312.22;6273662;28;20049;-75
2024/02/28 10:08:37;;;;;;;9.53;4.60;;;;;;;17.37;49.02;100327.69;6273454;28;20452;-70
2024/02/28 10:11:37;;;;;;;9.32;4.55;;;;;;;17.29;49.59;100325.69;6273486;28;20485;-70
2024/02/28 10:14:38;;;;;;;10.73;3.50;;;;;;;17.11;48.39;100325.44;6273791;28;20061;-71
2024/02/28 10:17:43;;;;;;;6.35;2.88;;;;;;;17.15;47.89;100323.38;6274359;28;20052;-70
2024/02/28 10:20:44;;;;;;;7.45;3.53;;;;;;;17.24;47.99;100325.25;6274494;28;20063;-70
2024/02/28 10:23:45;;;;;;;8.52;3.22;;;;;;;17.41;49.67;100323.81;6273322;28;20088;-71
2024/02/28 10:26:55;;;;;;;6.35;3.00;;;;;;;17.29;45.78;100325.69;6274536;28;20111;-70
2024/02/28 10:29:55;;;;;;;8.38;3.22;;;;;;;17.35;47.43;100313.78;6274144;28;20052;-70
2024/02/28 10:32:56;;;;;;;8.73;3.70;;;;;;;17.40;46.73;100316.84;6274367;28;20056;-70
2024/02/28 10:35:58;;;;;;;6.60;3.47;;;;;;;17.47;46.91;100313.56;6273121;28;20053;-70
2024/02/28 10:39:00;;;;;;;8.10;3.22;;;;;;;17.56;46.65;100313.75;6273914;28;20045;-71
2024/02/28 10:42:05;;;;;;;11.98;4.13;;;;;;;17.64;46.56;100306.00;6273001;28;20053;-71
2024/02/28 10:45:10;;;;;;;9.57;4.22;;;;;;;17.78;45.98;100310.91;6273925;28;20052;-70
2024/02/28 10:48:11;;;;;;;6.10;3.25;;;;;;;17.82;47.10;100307.03;6273733;28;20045;-70
2024/02/28 10:51:18;;;;;;;5.50;3.00;;;;;;;17.96;45.42;100303.22;6272589;28;20513;-70
2024/02/28 10:54:21;;;;;;;9.43;3.78;;;;;;;17.93;46.60;100303.50;6272594;28;20087;-70
2024/02/28 10:57:25;;;;;;;8.68;3.75;;;;;;;18.01;46.00;100302.81;6273579;28;20495;-71
2024/02/28 11:00:26;;;;;;;11.35;3.42;;;;;;;18.00;45.75;100296.72;6273813;28;20045;-70
2024/02/28 11:03:29;;;;;;;5.03;3.03;;;;;;;18.14;47.23;100295.50;6272241;28;20064;-71
2024/02/28 11:06:31;;;;;;;9.18;2.85;;;;;;;17.95;45.04;100301.53;6273365;28;20048;-71
2024/02/28 11:09:34;;;;;;;8.43;2.97;;;;;;;18.02;45.17;100304.50;6273458;28;20083;-69
2024/02/28 11:12:36;;;;;;;6.07;3.10;;;;;;;18.10;45.06;100299.38;6271993;28;20049;-69
2024/02/28 11:15:37;;;;;;;6.43;3.13;;;;;;;18.25;46.17;100295.34;6273045;28;20057;-70
2024/02/28 11:18:49;;;;;;;6.72;3.10;;;;;;;18.39;45.42;100304.69;6271821;28;20115;-70
2024/02/28 11:21:57;;;;;;;8.18;3.25;;;;;;;18.24;44.86;100306.06;6271988;28;20056;-69
2024/02/28 11:24:58;;;;;;;5.90;3.22;;;;;;;18.11;44.53;100301.03;6271675;28;20521;-71
2024/02/28 11:27:59;;;;;;;6.80;3.53;;;;;;;18.19;44.68;100295.91;6271723;28;20060;-70
2024/02/28 11:31:00;;;;;;;7.88;3.28;;;;;;;18.32;44.46;100300.91;6271498;28;20471;-71
2024/02/28 11:34:03;;;;;;;7.75;3.63;;;;;;;18.24;45.27;100300.78;6271800;28;20045;-70
2024/02/28 11:37:04;;;;;;;5.03;2.88;;;;;;;18.36;44.91;100294.38;6271454;28;20068;-70
2024/02/28 11:40:11;;;;;;;10.20;3.42;;;;;;;18.28;45.74;100294.25;6271499;28;20045;-69
2024/02/28 11:43:12;;;;;;;8.07;3.50;;;;;;;18.24;46.16;100298.13;6271312;28;20056;-71
2024/02/28 11:46:15;;;;;;;9.85;3.47;;;;;;;18.24;46.31;100293.69;6272349;28;20061;-70
2024/02/28 11:49:17;;;;;;;7.70;3.40;;;;;;;18.17;45.45;100297.84;6272873;28;20087;-69
2024/02/28 11:52:19;;;;;;;10.05;3.42;;;;;;;18.31;47.02;100292.16;6270808;28;20049;-70
2024/02/28 11:55:20;;;;;;;;;;;;;;;18.49;48.24;100292.31;6272848;28;20076;-70
2024/02/28 11:58:21;;;;;;;10.38;3.85;;;;;;;18.42;45.60;100277.16;6271879;28;19936;-70
2024/02/28 12:01:40;;;;;;;5.95;3.15;;;;;;;18.45;45.58;100287.44;6272097;28;20067;-69
2024/02/28 12:04:45;;;;;;;8.32;3.10;;;;;;;18.28;45.96;100279.25;6271948;28;20165;-70
2024/02/28 12:07:46;;;;;;;9.05;3.67;;;;;;;18.11;47.17;100277.28;6271804;28;20045;-71
2024/02/28 12:10:49;;;;;;;12.20;3.60;;;;;;;18.00;46.30;100282.69;6270524;28;20139;-70
2024/02/28 12:13:55;;;;;;;6.85;3.13;;;;;;;17.98;46.53;100281.97;6271981;28;20049;-75
2024/02/28 12:16:57;;;;;;;5.30;3.20;;;;;;;17.91;48.58;100276.38;6270596;28;20052;-75
2024/02/28 12:20:03;;;;;;;11.80;3.65;;;;;;;17.69;47.67;100275.63;6270568;28;20056;-75
2024/02/28 12:23:05;;;;;;;9.38;4.10;;;;;;;17.73;47.84;100273.56;6271517;28;20505;-75
2024/02/28 12:26:06;;;;;;;8.80;3.42;;;;;;;17.72;48.10;100274.50;6269773;28;20128;-75
2024/02/28 12:29:10;;;;;;;8.73;3.30;;;;;;;17.70;46.96;100269.34;6271495;28;20044;-75
2024/02/28 12:32:12;;;;;;;9.38;3.75;;;;;;;17.70;48.21;100273.81;6271717;28;20132;-75
2024/02/28 12:35:15;;;;;;;9.60;3.33;;;;;;;17.70;47.95;100265.88;6271416;28;20056;-70
2024/02/28 12:38:19;;;;;;;7.72;3.75;;;;;;;17.69;48.75;100267.69;6270002;28;20440;-70
2024/02/28 12:41:20;;;;;;;10.35;3.72;;;;;;;17.71;48.11;100260.47;6270189;28;20053;-70
2024/02/28 12:44:21;;;;;;;11.68;3.58;;;;;;;17.83;47.78;100261.25;6271298;28;20060;-75
2024/02/28 12:47:21;;;;;;;7.30;3.35;;;;;;;17.91;48.02;100264.06;6271111;28;20053;-75
2024/02/28 12:50:24;;;;;;;8.75;3.05;;;;;;;17.96;46.84;100265.44;6271114;28;20053;-75
2024/02/28 12:53:25;;;;;;;8.90;3.58;;;;;;;17.92;46.61;100265.69;6271021;28;20068;-75
2024/02/28 12:56:25;;;;;;;6.68;3.53;;;;;;;18.09;46.81;100261.56;6270966;28;20560;-70
2024/02/28 12:59:26;;;;;;;6.72;3.42;;;;;;;17.98;45.99;100260.88;6269952;28;20099;-69
2024/02/28 13:02:27;;;;;;;7.45;3.83;;;;;;;18.25;46.58;100261.03;6270821;28;20064;-69
2024/02/28 13:05:28;;;;;;;5.60;2.97;;;;;;;18.24;47.69;100262.00;6271519;28;20084;-75
2024/02/28 13:08:28;;;;;;;7.80;3.33;;;;;;;18.26;47.39;100261.84;6269904;28;20497;-75
2024/02/28 13:11:29;;;;;;;13.43;3.40;;;;;;;18.33;46.20;100258.53;6270807;28;20057;-75
2024/02/28 13:14:34;;;;;;;7.70;3.17;;;;;;;18.34;46.21;100254.06;6269747;28;20052;-75
2024/02/28 13:17:34;;;;;;;11.00;3.67;;;;;;;18.36;45.65;100252.13;6270681;28;20460;-75
2024/02/28 13:20:35;;;;;;;11.15;3.97;;;;;;;18.44;46.23;100248.78;6269566;28;20049;-75
2024/02/28 13:23:37;;;;;;;7.63;3.47;;;;;;;18.48;47.36;100250.19;6269745;28;20049;-75
2024/02/28 13:26:38;;;;;;;9.38;3.70;;;;;;;18.35;45.22;100249.66;6269613;28;20110;-75
2024/02/28 13:29:38;;;;;;;10.13;3.78;;;;;;;18.42;45.57;100254.22;6269336;28;20493;-75
2024/02/28 13:32:42;;;;;;;7.53;3.72;;;;;;;18.40;46.35;100258.78;6270992;28;20493;-75
2024/02/28 13:35:43;;;;;;;8.30;3.33;;;;;;;18.46;46.15;100246.84;6270710;28;20053;-75
2024/02/28 13:38:44;;;;;;;6.53;3.60;;;;;;;18.56;45.34;100244.22;6274193;28;20045;-75
2024/02/28 13:41:45;;;;;;;9.68;3.67;;;;;;;18.02;44.88;100238.50;6274162;28;20056;-75
2024/02/28 13:44:46;;;;;;;10.63;3.53;;;;;;;18.41;45.35;100239.34;6275355;28;20453;-75
2024/02/28 13:47:47;;;;;;;8.13;4.07;;;;;;;18.47;46.96;100236.16;6275650;28;20505;-75
2024/02/28 13:50:50;;;;;;;9.50;5.13;;;;;;;18.50;46.28;100240.31;6275075;28;20059;-75
2024/02/28 13:53:54;;;;;;;19.42;5.30;;;;;;;18.51;45.95;100234.88;6275121;28;20598;-75
2024/02/28 13:56:54;;;;;;;11.15;4.25;;;;;;;18.34;45.07;100232.94;6274128;28;20048;-75
2024/02/28 13:59:55;;;;;;;12.27;4.72;;;;;;;18.36;45.59;100238.91;6274773;28;20094;-75